Time;durP1;ratioP1;P1;durP2;ratioP2;P2;SDS_P1;SDS_P2;PMS_P1;PMS_P2;Temp;Humidity;BMP_temperature;BMP_pressure;BME280_temperature;BME280_humidity;BME280_pressure;Samples;Min_cycle;Max_cycle;Signal;HPM_P1;HPM_P2
2022/12/16 00:01:04;;;;;;;;;;;-1.50;99.90;;;;;;5064742;28;19936;-78
2022/12/16 00:03:33;;;;;;;;;;;-1.50;99.90;;;;;;5063452;28;19924;-78
2022/12/16 00:05:59;;;;;;;;;;;-1.50;99.90;;;;;;5063883;28;20357;-79
2022/12/16 00:08:24;;;;;;;;;;;-1.50;99.90;;;;;;5068045;28;19935;-78
2022/12/16 00:10:53;;;;;;;;;;;-1.40;99.90;;;;;;5055568;28;19931;-78
2022/12/16 00:13:18;;;;;;;;;;;-1.50;99.90;;;;;;5062527;28;19932;-78
2022/12/16 00:15:45;;;;;;;;;;;-1.40;99.90;;;;;;5069265;28;19933;-79
2022/12/16 00:18:11;;;;;;;;;;;-1.40;99.90;;;;;;5099738;28;19924;-78
2022/12/16 00:20:42;;;;;;;;;;;-1.40;99.90;;;;;;5060029;28;19925;-78
2022/12/16 00:23:07;;;;;;;;;;;-1.30;99.90;;;;;;5070132;28;19928;-80
2022/12/16 00:25:33;;;;;;;;;;;-1.30;99.90;;;;;;5103092;28;20433;-79
2022/12/16 00:27:58;;;;;;;;;;;-1.30;99.90;;;;;;5066577;28;20447;-78
2022/12/16 00:30:24;;;;;;;;;;;-1.20;99.90;;;;;;5054120;28;20290;-79
2022/12/16 00:32:49;;;;;;;;;;;-1.20;99.90;;;;;;5059400;28;19931;-79
2022/12/16 00:35:15;;;;;;;;;;;-1.20;99.90;;;;;;5070024;28;19932;-78
2022/12/16 00:37:40;;;;;;;;;;;-1.10;99.90;;;;;;5061397;28;19937;-79
2022/12/16 00:40:06;;;;;;;;;;;-1.00;99.90;;;;;;5066517;28;19928;-79
2022/12/16 00:42:32;;;;;;;;;;;-1.00;99.90;;;;;;5068846;28;20424;-79
2022/12/16 00:44:57;;;;;;;;;;;-0.90;99.90;;;;;;5068268;28;19931;-78
2022/12/16 00:47:23;;;;;;;;;;;-0.90;99.90;;;;;;5069995;28;19932;-79
2022/12/16 00:49:48;;;;;;;;;;;-0.90;99.90;;;;;;5077137;28;19925;-79
2022/12/16 00:52:14;;;;;;;;;;;-0.80;99.90;;;;;;5068100;28;19970;-79
2022/12/16 00:54:39;;;;;;;;;;;-0.90;99.90;;;;;;5072304;28;19951;-79
2022/12/16 00:57:05;;;;;;;;;;;-0.80;99.90;;;;;;5072125;28;19931;-79
2022/12/16 00:59:30;;;;;;;;;;;-0.80;99.90;;;;;;5066136;28;19932;-79
2022/12/16 01:01:56;;;;;;;;;;;-0.70;99.90;;;;;;5056788;28;19975;-78
2022/12/16 01:04:22;;;;;;;;;;;-0.70;99.90;;;;;;5099654;28;20015;-79
2022/12/16 01:06:47;;;;;;;;;;;-0.70;99.90;;;;;;5065316;28;19928;-78
2022/12/16 01:09:13;;;;;;;;;;;-0.70;99.90;;;;;;5076536;28;19924;-79
2022/12/16 01:11:38;;;;;;;;;;;-0.70;99.90;;;;;;5052978;28;19925;-79
2022/12/16 01:14:04;;;;;;;;;;;-0.70;99.90;;;;;;5063861;28;19977;-80
2022/12/16 01:16:29;;;;;;;;;;;-0.60;99.90;;;;;;5068868;28;19935;-78
2022/12/16 01:18:55;;;;;;;;;;;-0.60;99.90;;;;;;5070457;28;19925;-78
2022/12/16 01:21:21;;;;;;;;;;;-0.70;99.90;;;;;;5069835;28;19928;-78
2022/12/16 01:23:47;;;;;;;;;;;-0.50;99.90;;;;;;5070798;28;19925;-78
2022/12/16 01:26:14;;;;;;;;;;;-0.60;99.90;;;;;;5071157;28;19931;-78
2022/12/16 01:28:40;;;;;;;;;;;-0.60;99.90;;;;;;5070401;28;19924;-78
2022/12/16 01:31:05;;;;;;;;;;;-0.60;99.90;;;;;;5059014;28;20030;-79
2022/12/16 01:33:31;;;;;;;;;;;-0.50;99.90;;;;;;5058317;28;19933;-79
2022/12/16 01:35:58;;;;;;;;;;;-0.60;99.90;;;;;;5066856;28;19947;-79
2022/12/16 01:38:23;;;;;;;;;;;-0.50;99.90;;;;;;5075498;28;20011;-79
2022/12/16 01:40:50;;;;;;;;;;;-0.50;99.90;;;;;;5073198;28;20011;-79
2022/12/16 01:43:17;;;;;;;;;;;-0.60;99.90;;;;;;5061261;28;19955;-79
2022/12/16 01:45:43;;;;;;;;;;;-0.50;99.90;;;;;;5075254;28;19931;-78
2022/12/16 01:48:24;;;;;;;;;;;-0.50;99.90;;;;;;5070988;28;19925;-79
2022/12/16 01:50:51;;;;;;;;;;;-0.50;99.90;;;;;;5064756;28;19929;-77
2022/12/16 01:53:16;;;;;;;;;;;-0.50;99.90;;;;;;5074877;28;19931;-78
2022/12/16 01:55:45;;;;;;;;;;;-0.50;99.90;;;;;;5074412;28;19924;-79
2022/12/16 01:58:13;;;;;;;;;;;-0.50;99.90;;;;;;5064005;28;19992;-78
2022/12/16 02:00:39;;;;;;;;;;;-0.50;99.90;;;;;;5066021;28;20298;-79
2022/12/16 02:03:05;;;;;;;;;;;-0.50;99.90;;;;;;5052781;28;19935;-79
2022/12/16 02:05:32;;;;;;;;;;;-0.50;99.90;;;;;;5077572;28;19979;-79
2022/12/16 02:07:58;;;;;;;;;;;-0.50;99.90;;;;;;5068259;28;19924;-78
2022/12/16 02:10:31;;;;;;;;;;;-0.50;99.90;;;;;;5067411;28;19932;-79
2022/12/16 02:13:17;;;;;;;;;;;-0.40;99.90;;;;;;5072500;28;20015;-78
2022/12/16 02:16:09;;;;;;;;;;;-0.40;99.90;;;;;;5057284;28;19931;-78
2022/12/16 02:18:37;;;;;;;;;;;-0.50;99.90;;;;;;5058638;28;19935;-79
2022/12/16 02:21:14;;;;;;;;;;;-0.40;99.90;;;;;;5082113;28;19924;-78
2022/12/16 02:23:52;;;;;;;;;;;-0.40;99.90;;;;;;5072787;28;20366;-78
2022/12/16 02:26:30;;;;;;;;;;;-0.50;99.90;;;;;;5075724;28;19929;-78
2022/12/16 02:29:11;;;;;;;;;;;-0.50;99.90;;;;;;5064486;28;19943;-80
2022/12/16 02:31:51;;;;;;;;;;;-0.40;99.90;;;;;;5081225;28;19924;-79
2022/12/16 02:34:22;;;;;;;;;;;-0.40;99.90;;;;;;5071079;28;20426;-78
2022/12/16 02:37:06;;;;;;;;;;;-0.40;99.90;;;;;;5082872;28;20425;-79
2022/12/16 02:39:41;;;;;;;;;;;-0.40;99.90;;;;;;5080972;28;19972;-79
2022/12/16 02:42:10;;;;;;;;;;;-0.40;99.90;;;;;;5067706;28;20095;-78
2022/12/16 02:44:42;;;;;;;;;;;-0.40;99.90;;;;;;5055279;28;20011;-78
2022/12/16 02:47:08;;;;;;;;;;;-0.50;99.90;;;;;;5055619;28;19951;-79
2022/12/16 02:49:33;;;;;;;;;;;-0.50;99.90;;;;;;5062324;28;19929;-79
2022/12/16 02:51:59;;;;;;;;;;;-0.40;99.90;;;;;;5064831;28;19993;-79
2022/12/16 02:54:26;;;;;;;;;;;-0.40;99.90;;;;;;5074692;28;19931;-78
2022/12/16 02:57:09;;;;;;;;;;;-0.40;99.90;;;;;;5048060;28;19925;-78
2022/12/16 02:59:46;;;;;;;;;;;-0.40;99.90;;;;;;5063932;28;20392;-79
2022/12/16 03:02:18;;;;;;;;;;;-0.40;99.90;;;;;;5072815;28;20313;-79
2022/12/16 03:04:48;;;;;;;;;;;-0.40;99.90;;;;;;5060702;28;20023;-78
2022/12/16 03:07:16;;;;;;;;;;;-0.40;99.90;;;;;;5069550;28;19928;-79
2022/12/16 03:09:43;;;;;;;;;;;-0.40;99.90;;;;;;5060860;28;19925;-78
2022/12/16 03:12:10;;;;;;;;;;;-0.40;99.90;;;;;;5057114;28;19954;-79
2022/12/16 03:14:38;;;;;;;;;;;-0.40;99.90;;;;;;5070823;28;19935;-78
2022/12/16 03:17:04;;;;;;;;;;;-0.40;99.90;;;;;;5063197;28;19924;-78
2022/12/16 03:19:30;;;;;;;;;;;-0.40;99.90;;;;;;5069185;28;19966;-79
2022/12/16 03:22:00;;;;;;;;;;;-0.40;99.90;;;;;;5053413;28;19975;-78
2022/12/16 03:24:26;;;;;;;;;;;-0.40;99.90;;;;;;5073000;28;19928;-78
2022/12/16 03:26:52;;;;;;;;;;;-0.40;99.90;;;;;;5070859;28;19928;-77
2022/12/16 03:29:21;;;;;;;;;;;-0.40;99.90;;;;;;5070016;28;19947;-78
2022/12/16 03:31:50;;;;;;;;;;;-0.40;99.90;;;;;;5060094;28;20410;-78
2022/12/16 03:34:18;;;;;;;;;;;-0.40;99.90;;;;;;5070412;28;20287;-79
2022/12/16 03:36:48;;;;;;;;;;;-0.40;99.90;;;;;;5057357;28;19929;-79
2022/12/16 03:39:14;;;;;;;;;;;-0.40;99.90;;;;;;5044256;28;20372;-78
2022/12/16 03:41:41;;;;;;;;;;;-0.40;99.90;;;;;;5065911;28;19932;-78
2022/12/16 03:44:07;;;;;;;;;;;-0.30;99.90;;;;;;5064007;28;19924;-79
2022/12/16 03:46:33;;;;;;;;;;;-0.40;99.90;;;;;;5074403;28;19931;-78
2022/12/16 03:48:59;;;;;;;;;;;-0.40;99.90;;;;;;5071346;28;20410;-78
2022/12/16 03:51:24;;;;;;;;;;;-0.40;99.90;;;;;;5071923;28;19978;-79
2022/12/16 03:53:50;;;;;;;;;;;-0.40;99.90;;;;;;5072089;28;19925;-78
2022/12/16 03:56:15;;;;;;;;;;;-0.40;99.90;;;;;;5069846;28;20015;-78
2022/12/16 03:58:41;;;;;;;;;;;-0.40;99.90;;;;;;5060236;28;19925;-79
2022/12/16 04:01:08;;;;;;;;;;;-0.40;99.90;;;;;;5039755;28;20387;-79
2022/12/16 04:03:34;;;;;;;;;;;-0.40;99.90;;;;;;5068887;28;20502;-79
2022/12/16 04:05:59;;;;;;;;;;;-0.40;99.90;;;;;;5064436;28;19971;-78
2022/12/16 04:08:25;;;;;;;;;;;-0.40;99.90;;;;;;5065639;28;19931;-81
2022/12/16 04:24:32;;;;;;;;;;;-0.40;99.90;;;;;;5072313;28;19932;-80
2022/12/16 04:34:24;;;;;;;;;;;-0.30;99.90;;;;;;5072430;28;19932;-80
